createdAt,value
2023-01-29T00:00:00.565Z,74.80
2023-01-29T00:02:27.624Z,74.80
2023-01-29T00:04:58.947Z,74.70
2023-01-29T00:07:26.195Z,74.70
2023-01-29T00:09:53.429Z,74.70
2023-01-29T00:12:20.573Z,74.50
2023-01-29T00:14:47.633Z,74.40
2023-01-29T00:17:14.875Z,74.50
2023-01-29T00:19:42.113Z,74.40
2023-01-29T00:22:09.210Z,74.40
2023-01-29T00:24:36.322Z,74.20
2023-01-29T00:27:03.699Z,74.20
2023-01-29T00:29:30.741Z,74.10
2023-01-29T00:31:58.002Z,74.00
2023-01-29T00:34:25.229Z,73.90
2023-01-29T00:36:52.243Z,73.90
2023-01-29T00:39:29.382Z,73.90
2023-01-29T00:42:22.256Z,73.90
2023-01-29T00:44:57.956Z,73.90
2023-01-29T00:47:30.959Z,73.90
2023-01-29T00:49:58.348Z,73.90
2023-01-29T00:52:26.316Z,73.90
2023-01-29T00:54:58.975Z,73.80
2023-01-29T00:57:28.716Z,73.80
2023-01-29T00:59:55.801Z,73.80
2023-01-29T01:02:42.939Z,73.80
2023-01-29T01:05:17.831Z,73.80
2023-01-29T01:07:51.241Z,73.70
2023-01-29T01:10:32.553Z,73.70
2023-01-29T01:13:05.933Z,73.80
2023-01-29T01:15:39.661Z,73.70
2023-01-29T01:18:06.874Z,73.50
2023-01-29T01:20:36.138Z,73.50
2023-01-29T01:23:04.159Z,73.60
2023-01-29T01:25:31.317Z,73.60
2023-01-29T01:30:27.173Z,73.60
2023-01-29T01:32:54.362Z,73.50
2023-01-29T01:35:21.487Z,73.60
2023-01-29T01:37:48.684Z,73.60
2023-01-29T01:40:23.012Z,73.60
2023-01-29T01:42:59.080Z,73.60
2023-01-29T01:45:34.762Z,73.60
2023-01-29T01:48:15.413Z,73.60
2023-01-29T01:50:49.027Z,73.50
2023-01-29T01:53:27.108Z,73.60
2023-01-29T01:56:03.996Z,73.60
2023-01-29T01:58:38.908Z,73.60
2023-01-29T02:01:08.695Z,73.60
2023-01-29T02:04:09.434Z,73.70
2023-01-29T02:06:58.794Z,73.70
2023-01-29T02:09:53.293Z,73.60
2023-01-29T02:12:21.573Z,73.60
2023-01-29T02:14:48.853Z,73.60
2023-01-29T02:17:19.203Z,73.70
2023-01-29T02:20:07.321Z,73.70
2023-01-29T02:23:12.659Z,73.60
2023-01-29T02:26:16.880Z,73.60
2023-01-29T02:31:42.102Z,73.50
2023-01-29T02:34:59.138Z,73.40
2023-01-29T02:37:54.833Z,73.20
2023-01-29T02:41:16.795Z,73.20
2023-01-29T02:43:54.132Z,73.20
2023-01-29T02:46:45.219Z,73.30
2023-01-29T02:49:32.680Z,73.30
2023-01-29T02:52:03.414Z,73.30
2023-01-29T02:55:08.993Z,73.10
2023-01-29T02:57:41.036Z,73.00
2023-01-29T03:00:19.798Z,73.10
2023-01-29T03:03:26.814Z,73.00
2023-01-29T03:06:08.155Z,73.00
2023-01-29T03:08:50.483Z,73.00
2023-01-29T03:11:18.536Z,72.90
2023-01-29T03:13:58.452Z,72.80
2023-01-29T03:16:50.756Z,72.80
2023-01-29T03:19:36.774Z,72.70
2023-01-29T03:22:08.513Z,72.70
2023-01-29T03:25:05.555Z,72.90
2023-01-29T03:28:08.803Z,73.00
2023-01-29T03:31:02.193Z,73.10
2023-01-29T03:33:36.308Z,73.10
2023-01-29T03:36:16.770Z,73.20
2023-01-29T03:38:44.889Z,73.20
2023-01-29T03:41:20.520Z,73.10
2023-01-29T03:44:01.938Z,73.10
2023-01-29T03:46:51.800Z,73.10
2023-01-29T03:49:40.350Z,73.10
2023-01-29T03:52:18.677Z,73.10
2023-01-29T03:55:13.121Z,73.00
2023-01-29T03:57:45.772Z,72.90
2023-01-29T04:00:40.502Z,72.90
2023-01-29T04:03:19.290Z,72.70
2023-01-29T04:06:05.748Z,72.80
2023-01-29T04:08:43.131Z,72.80
2023-01-29T04:11:15.790Z,72.90
2023-01-29T04:13:44.061Z,72.90
2023-01-29T04:16:20.005Z,72.90
2023-01-29T04:18:48.697Z,72.90
2023-01-29T04:21:16.732Z,72.90
2023-01-29T04:23:43.977Z,72.90
2023-01-29T04:26:29.397Z,72.90
2023-01-29T04:29:34.321Z,72.90
2023-01-29T04:32:26.593Z,72.80
2023-01-29T04:35:01.904Z,72.80
2023-01-29T04:38:10.799Z,72.80
2023-01-29T04:41:02.063Z,72.80
2023-01-29T04:43:50.224Z,72.80
2023-01-29T04:46:26.461Z,72.80
2023-01-29T04:49:06.855Z,72.80
2023-01-29T04:51:56.449Z,72.90
2023-01-29T04:54:48.149Z,72.90
2023-01-29T04:57:56.982Z,72.90
2023-01-29T05:00:33.874Z,72.90
2023-01-29T05:03:02.126Z,72.90
2023-01-29T05:05:30.459Z,72.80
2023-01-29T05:07:59.323Z,72.90
2023-01-29T05:10:27.388Z,72.90
2023-01-29T05:13:02.300Z,72.90
2023-01-29T05:16:01.111Z,72.90
2023-01-29T05:18:30.227Z,72.90
2023-01-29T05:21:01.327Z,72.90
2023-01-29T05:23:28.384Z,72.90
2023-01-29T05:25:57.476Z,72.90
2023-01-29T05:28:24.524Z,72.90
2023-01-29T05:30:55.030Z,72.80
2023-01-29T05:33:26.276Z,72.80
2023-01-29T05:35:53.959Z,72.80
2023-01-29T05:38:21.962Z,72.80
2023-01-29T05:40:49.378Z,72.80
2023-01-29T05:43:23.339Z,72.80
2023-01-29T05:46:00.840Z,72.80
2023-01-29T05:48:29.590Z,72.90
2023-01-29T05:51:04.268Z,72.90
2023-01-29T05:53:32.521Z,72.90
2023-01-29T05:56:02.709Z,72.80
2023-01-29T05:58:32.168Z,72.80
2023-01-29T06:01:08.766Z,72.80
2023-01-29T06:03:35.792Z,72.80
2023-01-29T06:06:03.225Z,72.80
2023-01-29T06:08:30.329Z,72.80
2023-01-29T06:10:57.457Z,72.80
2023-01-29T06:13:24.710Z,72.60
2023-01-29T06:15:51.802Z,72.60
2023-01-29T06:18:19.232Z,72.60
2023-01-29T06:20:46.284Z,72.60
2023-01-29T06:23:14.232Z,72.40
2023-01-29T06:25:41.426Z,72.40
2023-01-29T06:28:08.577Z,72.40
2023-01-29T06:30:35.658Z,72.40
2023-01-29T06:33:03.055Z,72.50
2023-01-29T06:35:30.136Z,72.60
2023-01-29T06:37:57.809Z,72.60
2023-01-29T06:40:24.955Z,72.60
2023-01-29T06:42:51.956Z,72.50
2023-01-29T06:45:19.230Z,72.50
2023-01-29T06:47:46.337Z,72.50
2023-01-29T06:50:13.359Z,72.50
2023-01-29T06:52:40.533Z,72.50
2023-01-29T06:55:08.300Z,72.60
2023-01-29T06:57:35.599Z,72.60
2023-01-29T07:00:02.752Z,72.50
2023-01-29T07:02:30.031Z,72.50
2023-01-29T07:04:57.054Z,72.50
2023-01-29T07:07:24.059Z,72.50
2023-01-29T07:09:51.085Z,72.40
2023-01-29T07:12:18.078Z,72.40
2023-01-29T07:14:45.282Z,72.40
2023-01-29T07:17:12.336Z,72.20
2023-01-29T07:19:39.355Z,72.10
2023-01-29T07:22:06.371Z,72.20
2023-01-29T07:24:33.469Z,72.10
2023-01-29T07:27:00.483Z,72.10
2023-01-29T07:29:27.523Z,72.10
2023-01-29T07:31:54.710Z,72.20
2023-01-29T07:34:21.830Z,72.40
2023-01-29T07:36:48.891Z,72.40
2023-01-29T07:39:15.946Z,72.40
2023-01-29T07:41:43.005Z,72.40
2023-01-29T07:44:10.203Z,72.40
2023-01-29T07:46:37.239Z,72.40
2023-01-29T07:49:04.319Z,72.40
2023-01-29T07:51:31.336Z,72.40
2023-01-29T07:53:58.574Z,72.50
2023-01-29T07:56:25.663Z,72.50
2023-01-29T07:58:52.821Z,72.50
2023-01-29T08:01:19.906Z,72.50
2023-01-29T08:03:46.960Z,72.50
2023-01-29T08:06:13.998Z,72.50
2023-01-29T08:08:40.982Z,72.40
2023-01-29T08:11:08.070Z,72.40
2023-01-29T08:13:35.132Z,72.30
2023-01-29T08:16:04.320Z,72.30
2023-01-29T08:18:31.691Z,72.40
2023-01-29T08:21:02.660Z,72.30
2023-01-29T08:23:30.219Z,72.20
2023-01-29T08:25:57.343Z,72.20
2023-01-29T08:28:24.459Z,72.40
2023-01-29T08:30:51.623Z,72.40
2023-01-29T08:33:23.753Z,72.40
2023-01-29T08:35:53.711Z,72.50
2023-01-29T08:38:21.068Z,72.50
2023-01-29T08:40:48.053Z,72.40
2023-01-29T08:43:15.126Z,72.40
2023-01-29T08:45:44.074Z,72.30
2023-01-29T08:48:11.497Z,72.30
2023-01-29T08:50:38.901Z,72.40
2023-01-29T08:53:08.430Z,72.30
2023-01-29T08:55:42.321Z,72.20
2023-01-29T08:58:12.365Z,72.20
2023-01-29T09:00:39.836Z,72.10
2023-01-29T09:03:08.057Z,72.10
2023-01-29T09:05:40.076Z,72.00
2023-01-29T09:08:08.868Z,72.00
2023-01-29T09:10:36.821Z,71.90
2023-01-29T09:13:05.040Z,72.00
2023-01-29T09:15:32.218Z,72.00
2023-01-29T09:18:03.938Z,71.90
2023-01-29T09:20:31.014Z,72.00
2023-01-29T09:22:59.212Z,71.90
2023-01-29T09:25:26.254Z,71.80
2023-01-29T09:27:54.560Z,71.90
2023-01-29T09:30:21.844Z,71.90
2023-01-29T09:32:53.676Z,71.80
2023-01-29T09:35:23.755Z,71.90
2023-01-29T09:37:52.256Z,71.90
2023-01-29T09:40:54.179Z,72.00
2023-01-29T09:43:30.107Z,72.00
2023-01-29T09:46:05.418Z,72.00
2023-01-29T09:48:35.626Z,72.00
2023-01-29T09:51:14.423Z,72.00
2023-01-29T09:54:13.880Z,71.80
2023-01-29T09:56:43.998Z,71.70
2023-01-29T09:59:14.193Z,71.70
2023-01-29T10:02:09.900Z,71.80
2023-01-29T10:05:07.961Z,71.70
2023-01-29T10:07:55.931Z,71.80
2023-01-29T10:11:14.406Z,71.70
2023-01-29T10:14:25.630Z,71.60
2023-01-29T10:17:42.464Z,72.00
2023-01-29T10:20:49.018Z,72.00
2023-01-29T10:23:29.774Z,71.90
2023-01-29T10:25:57.498Z,71.70
2023-01-29T10:28:50.769Z,71.80
2023-01-29T10:31:36.580Z,71.60
2023-01-29T10:34:35.882Z,71.90
2023-01-29T10:37:40.749Z,71.70
2023-01-29T10:40:24.999Z,71.80
2023-01-29T10:43:04.863Z,71.50
2023-01-29T10:45:43.554Z,71.60
2023-01-29T10:48:45.050Z,71.80
2023-01-29T10:51:35.803Z,71.70
2023-01-29T10:54:25.935Z,71.60
2023-01-29T10:57:09.322Z,71.70
2023-01-29T10:59:41.918Z,71.40
2023-01-29T11:02:18.152Z,71.50
2023-01-29T11:04:45.946Z,71.40
2023-01-29T11:07:14.394Z,71.30
2023-01-29T11:10:00.362Z,71.00
2023-01-29T11:12:33.669Z,70.60
2023-01-29T11:15:19.915Z,70.40
2023-01-29T11:18:14.180Z,70.00
2023-01-29T11:20:43.907Z,69.30
2023-01-29T11:23:30.656Z,69.70
2023-01-29T11:25:59.430Z,69.40
2023-01-29T11:28:37.540Z,69.70
2023-01-29T11:31:16.154Z,69.50
2023-01-29T11:33:43.763Z,69.70
2023-01-29T11:36:38.409Z,70.00
2023-01-29T11:39:20.033Z,69.50
2023-01-29T11:42:05.503Z,69.80
2023-01-29T11:44:44.681Z,69.70
2023-01-29T11:47:16.473Z,69.50
2023-01-29T11:50:02.134Z,69.70
2023-01-29T11:52:42.189Z,69.20
2023-01-29T11:55:48.119Z,69.40
2023-01-29T11:58:20.498Z,69.20
2023-01-29T12:00:51.003Z,69.60
2023-01-29T12:03:34.293Z,69.80
2023-01-29T12:06:31.703Z,69.90
2023-01-29T12:09:10.263Z,70.10
2023-01-29T12:11:37.782Z,69.60
2023-01-29T12:14:22.325Z,69.70
2023-01-29T12:17:08.413Z,69.70
2023-01-29T12:19:47.052Z,69.70
2023-01-29T12:22:43.429Z,69.70
2023-01-29T12:25:28.912Z,69.60
2023-01-29T12:28:21.481Z,69.70
2023-01-29T12:31:09.499Z,69.70
2023-01-29T12:34:09.630Z,69.20
2023-01-29T12:37:00.433Z,69.10
2023-01-29T12:39:27.713Z,68.80
2023-01-29T12:42:10.348Z,69.00
2023-01-29T12:44:48.538Z,69.10
2023-01-29T12:47:23.714Z,69.50
2023-01-29T12:49:58.304Z,69.60
2023-01-29T12:52:46.874Z,69.50
2023-01-29T12:55:24.647Z,69.00
2023-01-29T12:57:59.098Z,69.30
2023-01-29T13:00:41.127Z,69.20
2023-01-29T13:03:11.459Z,69.30
2023-01-29T13:06:10.902Z,69.30
2023-01-29T13:08:49.693Z,68.70
2023-01-29T13:11:37.468Z,69.40
2023-01-29T13:14:40.675Z,69.10
2023-01-29T13:17:28.273Z,68.60
2023-01-29T13:20:01.843Z,69.00
2023-01-29T13:22:37.387Z,68.70
2023-01-29T13:25:05.931Z,68.80
2023-01-29T13:27:35.256Z,68.90
2023-01-29T13:30:03.331Z,68.90
2023-01-29T13:32:33.180Z,69.00
2023-01-29T13:35:14.249Z,68.80
2023-01-29T13:37:55.504Z,68.90
2023-01-29T13:40:27.308Z,69.10
2023-01-29T13:42:57.255Z,69.40
2023-01-29T13:45:45.791Z,69.40
2023-01-29T13:48:32.042Z,69.20
2023-01-29T13:51:04.123Z,69.30
2023-01-29T13:53:38.587Z,69.10
2023-01-29T13:56:33.565Z,69.00
2023-01-29T13:59:03.722Z,68.90
2023-01-29T14:01:48.885Z,69.20
2023-01-29T14:04:26.791Z,69.10
2023-01-29T14:06:56.034Z,69.30
2023-01-29T14:09:46.395Z,69.30
2023-01-29T14:12:22.409Z,68.80
2023-01-29T14:14:49.410Z,69.10
2023-01-29T14:17:19.547Z,69.20
2023-01-29T14:19:59.217Z,69.30
2023-01-29T14:22:28.877Z,69.30
2023-01-29T14:25:06.909Z,69.30
2023-01-29T14:27:35.899Z,69.30
2023-01-29T14:30:09.918Z,69.20
2023-01-29T14:32:40.866Z,69.10
2023-01-29T14:35:33.935Z,69.20
2023-01-29T14:38:06.947Z,68.80
2023-01-29T14:40:37.268Z,69.10
2023-01-29T14:43:21.198Z,69.00
2023-01-29T14:45:49.907Z,69.10
2023-01-29T14:48:39.177Z,69.20
2023-01-29T14:51:18.091Z,69.10
2023-01-29T14:54:17.362Z,69.10
2023-01-29T14:56:58.882Z,68.90
2023-01-29T14:59:38.445Z,69.30
2023-01-29T15:02:23.267Z,69.40
2023-01-29T15:04:55.074Z,69.50
2023-01-29T15:07:53.625Z,69.30
2023-01-29T15:11:13.144Z,69.00
2023-01-29T15:13:57.446Z,68.40
2023-01-29T15:17:17.430Z,68.80
2023-01-29T15:19:49.555Z,69.10
2023-01-29T15:22:29.856Z,69.20
2023-01-29T15:25:15.443Z,69.20
2023-01-29T15:27:44.825Z,69.40
2023-01-29T15:30:19.408Z,69.50
2023-01-29T15:32:48.329Z,69.60
2023-01-29T15:35:27.377Z,69.50
2023-01-29T15:38:19.284Z,69.40
2023-01-29T15:40:59.537Z,69.50
2023-01-29T15:43:35.606Z,69.20
2023-01-29T15:46:10.002Z,69.60
2023-01-29T15:48:41.886Z,69.70
2023-01-29T15:51:20.176Z,69.80
2023-01-29T15:53:55.347Z,69.80
2023-01-29T15:56:44.032Z,69.80
2023-01-29T15:59:25.805Z,69.80
2023-01-29T16:01:53.837Z,69.80
2023-01-29T16:04:31.476Z,69.40
2023-01-29T16:07:00.861Z,69.50
2023-01-29T16:09:29.101Z,69.30
2023-01-29T16:11:59.016Z,69.50
2023-01-29T16:14:27.978Z,69.60
2023-01-29T16:16:55.255Z,69.70
2023-01-29T16:19:26.721Z,69.70
2023-01-29T16:22:05.557Z,69.80
2023-01-29T16:24:36.617Z,69.50
2023-01-29T16:27:13.850Z,69.60
2023-01-29T16:29:41.513Z,69.70
2023-01-29T16:32:09.677Z,69.70
2023-01-29T16:34:43.097Z,69.70
2023-01-29T16:37:32.547Z,69.70
2023-01-29T16:40:00.078Z,69.60
2023-01-29T16:42:31.628Z,69.70
2023-01-29T16:45:39.411Z,69.80
2023-01-29T16:48:31.840Z,69.70
2023-01-29T16:51:30.615Z,69.50
2023-01-29T16:54:22.330Z,69.50
2023-01-29T16:56:53.317Z,69.40
2023-01-29T16:59:58.579Z,69.50
2023-01-29T17:02:37.651Z,69.30
2023-01-29T17:05:10.389Z,69.60
2023-01-29T17:07:38.244Z,69.60
2023-01-29T17:10:07.573Z,69.60
2023-01-29T17:12:36.771Z,69.60
2023-01-29T17:15:43.073Z,69.70
2023-01-29T17:18:25.901Z,69.50
2023-01-29T17:20:53.665Z,69.40
2023-01-29T17:23:21.626Z,69.50
2023-01-29T17:25:49.535Z,69.50
2023-01-29T17:28:18.274Z,69.60
2023-01-29T17:30:56.565Z,69.60
2023-01-29T17:33:32.196Z,69.70
2023-01-29T17:35:59.287Z,69.70
2023-01-29T17:38:26.985Z,69.70
2023-01-29T17:40:56.720Z,69.80
2023-01-29T17:43:30.562Z,69.70
2023-01-29T17:45:57.653Z,69.70
2023-01-29T17:48:27.631Z,69.80
2023-01-29T17:51:02.221Z,69.70
2023-01-29T17:53:44.288Z,69.80
2023-01-29T17:56:31.026Z,69.80
2023-01-29T17:58:58.098Z,69.90
2023-01-29T18:01:25.145Z,69.90
2023-01-29T18:03:52.469Z,69.90
2023-01-29T18:06:27.676Z,69.90
2023-01-29T18:08:54.807Z,69.90
2023-01-29T18:11:21.931Z,69.90
2023-01-29T18:13:49.001Z,69.90
2023-01-29T18:16:18.205Z,69.90
2023-01-29T18:18:45.516Z,69.90
2023-01-29T18:21:12.528Z,69.80
2023-01-29T18:23:39.651Z,69.90
2023-01-29T18:26:07.640Z,69.90
2023-01-29T18:28:34.673Z,69.90
2023-01-29T18:31:03.294Z,69.80
2023-01-29T18:33:31.226Z,69.80
2023-01-29T18:35:58.540Z,69.80
2023-01-29T18:38:25.570Z,69.70
2023-01-29T18:40:52.625Z,69.80
2023-01-29T18:43:19.709Z,69.90
2023-01-29T18:45:46.821Z,69.90
2023-01-29T18:48:14.468Z,69.90
2023-01-29T18:50:41.494Z,69.90
2023-01-29T18:53:08.591Z,69.80
2023-01-29T18:55:35.668Z,69.80
2023-01-29T18:58:29.152Z,69.80
2023-01-29T19:00:49.709Z,69.80
2023-01-29T19:03:17.346Z,69.80
2023-01-29T19:05:44.676Z,69.70
2023-01-29T19:08:11.791Z,69.80
2023-01-29T19:10:39.078Z,69.80
2023-01-29T19:13:06.957Z,69.80
2023-01-29T19:15:34.812Z,69.70
2023-01-29T19:18:02.315Z,69.70
2023-01-29T19:20:29.432Z,69.80
2023-01-29T19:22:56.504Z,69.90
2023-01-29T19:25:23.622Z,70.00
2023-01-29T19:27:50.758Z,70.10
2023-01-29T19:30:19.322Z,70.10
2023-01-29T19:32:46.509Z,70.10
2023-01-29T19:35:13.743Z,70.20
2023-01-29T19:37:40.781Z,70.20
2023-01-29T19:40:08.703Z,70.10
2023-01-29T19:42:37.549Z,70.20
2023-01-29T19:45:05.667Z,70.20
2023-01-29T19:47:33.766Z,70.20
2023-01-29T19:50:00.870Z,70.10
2023-01-29T19:52:52.264Z,70.20
2023-01-29T19:55:21.257Z,70.20
2023-01-29T19:57:48.741Z,70.30
2023-01-29T20:00:17.578Z,70.30
2023-01-29T20:02:44.782Z,70.30
2023-01-29T20:05:13.090Z,70.30
2023-01-29T20:07:42.364Z,70.30
2023-01-29T20:10:17.368Z,70.30
2023-01-29T20:12:46.102Z,70.40
2023-01-29T20:15:16.209Z,70.40
2023-01-29T20:17:45.552Z,70.40
2023-01-29T20:20:12.986Z,70.20
2023-01-29T20:22:40.090Z,70.20
2023-01-29T20:25:07.704Z,70.20
2023-01-29T20:27:35.234Z,70.20
2023-01-29T20:30:02.270Z,70.10
2023-01-29T20:32:29.994Z,70.10
2023-01-29T20:34:57.115Z,70.00
2023-01-29T20:37:24.168Z,70.00
2023-01-29T20:39:51.263Z,70.00
2023-01-29T20:42:18.508Z,70.20
2023-01-29T20:44:45.645Z,70.30
2023-01-29T20:47:12.670Z,70.30
2023-01-29T20:49:39.745Z,70.20
2023-01-29T20:52:07.671Z,70.20
2023-01-29T20:54:34.818Z,70.10
2023-01-29T20:57:02.034Z,70.30
2023-01-29T20:59:29.310Z,70.40
2023-01-29T21:01:56.636Z,70.40
2023-01-29T21:04:23.778Z,70.40
2023-01-29T21:06:50.895Z,70.30
2023-01-29T21:09:17.985Z,70.40
2023-01-29T21:11:45.187Z,70.40
2023-01-29T21:14:12.623Z,70.40
2023-01-29T21:16:40.175Z,70.60
2023-01-29T21:19:07.304Z,70.40
2023-01-29T21:21:34.801Z,70.50
2023-01-29T21:24:01.916Z,70.50
2023-01-29T21:26:29.035Z,70.60
2023-01-29T21:28:56.179Z,70.60
2023-01-29T21:31:23.419Z,70.50
2023-01-29T21:33:50.531Z,70.40
2023-01-29T21:36:17.689Z,70.50
2023-01-29T21:38:44.731Z,70.50
2023-01-29T21:41:11.771Z,70.30
2023-01-29T21:43:39.276Z,70.40
2023-01-29T21:46:15.652Z,70.40
2023-01-29T21:48:43.352Z,70.40
2023-01-29T21:51:10.580Z,70.50
2023-01-29T21:53:37.806Z,70.50
2023-01-29T21:56:06.383Z,70.40
2023-01-29T21:58:36.600Z,70.40
2023-01-29T22:01:23.031Z,70.40
2023-01-29T22:03:50.985Z,70.40
2023-01-29T22:06:18.323Z,70.40
2023-01-29T22:08:45.625Z,70.40
2023-01-29T22:11:12.848Z,70.30
2023-01-29T22:13:39.993Z,70.40
2023-01-29T22:16:07.588Z,70.40
2023-01-29T22:18:35.263Z,70.40
2023-01-29T22:21:03.032Z,70.40
2023-01-29T22:23:32.103Z,70.40
2023-01-29T22:26:07.576Z,70.40
2023-01-29T22:28:35.859Z,70.50
2023-01-29T22:31:04.678Z,70.40
2023-01-29T22:33:33.501Z,70.30
2023-01-29T22:36:01.265Z,70.30
2023-01-29T22:38:29.094Z,70.40
2023-01-29T22:40:57.661Z,70.40
2023-01-29T22:43:26.068Z,70.30
2023-01-29T22:45:53.296Z,70.40
2023-01-29T22:48:20.382Z,70.40
2023-01-29T22:50:53.896Z,70.30
2023-01-29T22:53:21.354Z,70.40
2023-01-29T22:55:55.689Z,70.20
2023-01-29T22:58:22.978Z,70.10
2023-01-29T23:00:51.413Z,70.20
2023-01-29T23:03:18.544Z,70.30
2023-01-29T23:05:45.683Z,70.30
2023-01-29T23:08:12.831Z,70.20
2023-01-29T23:10:39.957Z,70.20
2023-01-29T23:13:07.054Z,70.20
2023-01-29T23:15:34.257Z,70.20
2023-01-29T23:18:01.369Z,70.00
2023-01-29T23:20:28.594Z,70.10
2023-01-29T23:22:55.860Z,70.20
2023-01-29T23:25:43.094Z,70.40
2023-01-29T23:28:10.279Z,70.30
2023-01-29T23:30:37.595Z,70.40
2023-01-29T23:33:04.990Z,70.40
2023-01-29T23:35:32.807Z,70.30
2023-01-29T23:37:59.873Z,70.40
2023-01-29T23:40:29.563Z,70.30
2023-01-29T23:42:56.588Z,70.40
2023-01-29T23:45:23.857Z,70.40
2023-01-29T23:47:50.905Z,70.40
2023-01-29T23:50:18.540Z,70.30
2023-01-29T23:52:45.969Z,70.30
2023-01-29T23:55:13.056Z,70.30
2023-01-29T23:57:40.105Z,70.30
